Crum Creek, New York
Current Conditions -  °F | °C
As of 11:55 AM on Monday 22 Dec 2014 (Local Time) from KNY0 Reporting Station
Overcast Overcast  
Wind Chill: 31°   Ceiling: 1300
Heat Index: 31°   Visibility: 10mi
Dew Point: 27°   Wind: 0mph
Humidity: 83%   Direction: NA
Pressure: 30.29"   Gusts: NA
Location:  43.035°N, 74.6217°W
Report Text: KNY0 221655Z AUTO 00000KT 10SM OVC013 00/M03 A3029 RMK AO2 T10031028
Loading
Personal Weather Stations






























Interactive Weather Map New forecast layout! Learn more

10-Day Weather Forecast

Advertisements
Track Severe Weather on mobile